Station Historical Data
Daily Summary for September 10, 2017 Units:  Metric    English   Both
« Previous Day
Next Day »
Daily Weekly Monthly Yearly Custom
  High: Low: Average:
Temperature: 19.7 °C 6.3 °C 13.1 °C
Dew Point: 10.8 °C 5.1 °C 8 °C
Humidity: 92% 47% 74%
Wind Speed: 12.9km/h 0km/h 1.8km/h
Wind Gust: 19.3km/h - -
Wind- - ESE
Pressure: 1033.1 hPa 1030 hPa -
Precipitation: 0 mm    
Historical Graphs
 
 
Tabular Data for September 10, 2017
Time Temperature Dew Point Pressure Wind Wind Speed Wind Gust Humidity Rainfall Rate (Hourly)
00:04 9.7 °C 7.3 °C 1030 hPa Calm     85% 0 mm
00:09 9.7 °C 7.3 °C 1030 hPa Calm     85% 0 mm
00:14 9.6 °C 7.2 °C 1030 hPa Calm     85% 0 mm
00:19 9.5 °C 7.1 °C 1030 hPa Calm     85% 0 mm
00:24 9.4 °C 7 °C 1030 hPa Calm     85% 0 mm
00:29 9.3 °C 7.1 °C 1030 hPa Calm     86% 0 mm
00:34 9.3 °C 7.1 °C 1030 hPa Calm     86% 0 mm
00:39 9.1 °C 6.8 °C 1030 hPa Calm     86% 0 mm
00:44 8.9 °C 6.9 °C 1030.4 hPa Calm     87% 0 mm
00:49 8.9 °C 6.8 °C 1030.4 hPa Calm     87% 0 mm
00:54 8.8 °C 6.7 °C 1030.4 hPa Calm     87% 0 mm
00:59 8.7 °C 6.6 °C 1030.4 hPa Calm     87% 0 mm
01:05 8.6 °C 6.6 °C 1030.4 hPa Calm     87% 0 mm
01:10 8.5 °C 6.6 °C 1030.7 hPa Calm     88% 0 mm
01:15 8.4 °C 6.5 °C 1030.7 hPa Calm     88% 0 mm
01:20 8.4 °C 6.5 °C 1030.7 hPa Calm     88% 0 mm
01:25 8.3 °C 6.4 °C 1030.7 hPa Calm     88% 0 mm
01:30 8.4 °C 6.7 °C 1030.4 hPa Calm     89% 0 mm
01:35 8.4 °C 6.7 °C 1030.4 hPa Calm     89% 0 mm
01:40 8.3 °C 6.6 °C 1030.4 hPa Calm     89% 0 mm
01:45 8.2 °C 6.5 °C 1030.4 hPa Calm     89% 0 mm
01:50 8.2 °C 6.4 °C 1030.4 hPa Calm     89% 0 mm
01:55 8.1 °C 6.3 °C 1030.4 hPa Calm     89% 0 mm
02:00 8.1 °C 6.3 °C 1030.4 hPa Calm     89% 0 mm
02:05 8.1 °C 6.3 °C 1030.4 hPa Calm     89% 0 mm
02:10 7.9 °C 6.2 °C 1030.4 hPa Calm     89% 0 mm
02:15 7.9 °C 6.2 °C 1030.4 hPa Calm     89% 0 mm
02:20 7.8 °C 6.3 °C 1030.4 hPa Calm     90% 0 mm
02:25 7.8 °C 6.3 °C 1030.4 hPa Calm     90% 0 mm
02:30 7.7 °C 6.2 °C 1030.4 hPa Calm     90% 0 mm
02:35 7.6 °C 6.1 °C 1030.4 hPa Calm     90% 0 mm
02:40 7.6 °C 6.1 °C 1030.4 hPa Calm     90% 0 mm
02:45 7.7 °C 6.1 °C 1030.4 hPa Calm     90% 0 mm
02:50 7.7 °C 6.1 °C 1030.4 hPa Calm     90% 0 mm
02:55 7.7 °C 6.1 °C 1030.4 hPa Calm     90% 0 mm
03:00 7.6 °C 6.1 °C 1030.4 hPa Calm     90% 0 mm
03:05 7.6 °C 6.2 °C 1030.4 hPa Calm     91% 0 mm
03:10 7.6 °C 6.2 °C 1030.4 hPa Calm     91% 0 mm
03:15 7.6 °C 6.2 °C 1030.4 hPa Calm     91% 0 mm
03:20 7.5 °C 5.9 °C 1030.4 hPa Calm     90% 0 mm
03:25 7.3 °C 5.8 °C 1030.4 hPa Calm     90% 0 mm
03:30 7.2 °C 5.6 °C 1030.4 hPa Calm     90% 0 mm
03:35 7.2 °C 5.8 °C 1030.4 hPa Calm     91% 0 mm
03:40 7.1 °C 5.7 °C 1030.4 hPa Calm     91% 0 mm
03:45 7.1 °C 5.7 °C 1030.7 hPa Calm     91% 0 mm
03:50 7 °C 5.6 °C 1030.7 hPa Calm     91% 0 mm
03:55 7 °C 5.6 °C 1030.7 hPa Calm     91% 0 mm
04:00 7.1 °C 5.7 °C 1030.7 hPa Calm     91% 0 mm
04:05 7 °C 5.6 °C 1030.7 hPa Calm     91% 0 mm
04:10 6.9 °C 5.6 °C 1030.7 hPa Calm     91% 0 mm
04:15 6.9 °C 5.5 °C 1030.7 hPa Calm     91% 0 mm
04:20 6.8 °C 5.4 °C 1030.7 hPa Calm     91% 0 mm
04:25 6.9 °C 5.5 °C 1030.7 hPa Calm     91% 0 mm
04:30 6.8 °C 5.4 °C 1030.7 hPa Calm     91% 0 mm
04:35 6.8 °C 5.4 °C 1030.7 hPa Calm     91% 0 mm
04:40 6.8 °C 5.4 °C 1030.7 hPa Calm     91% 0 mm
04:45 6.7 °C 5.3 °C 1030.7 hPa Calm     91% 0 mm
04:50 6.8 °C 5.6 °C 1030.7 hPa Calm     92% 0 mm
04:55 6.9 °C 5.7 °C 1030.7 hPa Calm     92% 0 mm
05:00 6.8 °C 5.6 °C 1030.7 hPa Calm     92% 0 mm
05:05 6.9 °C 5.7 °C 1031 hPa Calm     92% 0 mm
05:09 6.9 °C 5.7 °C 1031 hPa Calm     92% 0 mm
05:15 6.9 °C 5.7 °C 1031 hPa Calm     92% 0 mm
05:20 6.8 °C 5.6 °C 1031 hPa Calm     92% 0 mm
05:25 6.8 °C 5.6 °C 1031 hPa Calm     92% 0 mm
05:30 6.9 °C 5.7 °C 1031 hPa Calm     92% 0 mm
05:35 6.8 °C 5.6 °C 1031 hPa Calm     92% 0 mm
05:40 6.8 °C 5.6 °C 1031 hPa Calm     92% 0 mm
05:45 6.7 °C 5.5 °C 1031 hPa Calm     92% 0 mm
05:50 6.7 °C 5.4 °C 1031 hPa Calm     92% 0 mm
05:55 6.6 °C 5.2 °C 1031.4 hPa Calm     91% 0 mm
06:00 6.5 °C 5.1 °C 1031.4 hPa Calm     91% 0 mm
06:05 6.4 °C 5.2 °C 1031.4 hPa Calm     92% 0 mm
06:10 6.4 °C 5.2 °C 1031.4 hPa Calm     92% 0 mm
06:19 6.3 °C 5.1 °C 1031.4 hPa Calm     92% 0 mm
06:25 6.3 °C 5.1 °C 1031.4 hPa Calm     92% 0 mm
06:30 6.3 °C 5.1 °C 1031.4 hPa Calm     92% 0 mm
06:35 6.4 °C 5.2 °C 1031.7 hPa Calm     92% 0 mm
06:40 6.3 °C 5.1 °C 1031.7 hPa Calm     92% 0 mm
06:45 6.4 °C 5.2 °C 1031.7 hPa Calm     92% 0 mm
06:50 6.4 °C 5.2 °C 1032.1 hPa Calm     92% 0 mm
06:55 6.4 °C 5.2 °C 1032.1 hPa Calm     92% 0 mm
07:00 6.4 °C 5.2 °C 1032.1 hPa Calm     92% 0 mm
07:05 6.4 °C 5.2 °C 1032.1 hPa Calm     92% 0 mm
07:10 6.5 °C 5.3 °C 1032.1 hPa Calm     92% 0 mm
07:15 6.6 °C 5.3 °C 1032.1 hPa Calm     92% 0 mm
07:19 6.6 °C 5.4 °C 1032.1 hPa Calm     92% 0 mm
07:24 6.7 °C 5.5 °C 1032.1 hPa Calm     92% 0 mm
07:30 6.8 °C 5.6 °C 1032.1 hPa Calm     92% 0 mm
07:35 6.9 °C 5.7 °C 1032.4 hPa Calm     92% 0 mm
07:40 7 °C 5.8 °C 1032.4 hPa Calm     92% 0 mm
07:45 7.1 °C 5.9 °C 1032.4 hPa Calm     92% 0 mm
07:49 7.3 °C 6.1 °C 1032.4 hPa Calm     92% 0 mm
07:55 7.4 °C 6.2 °C 1032.4 hPa Calm     92% 0 mm
08:00 7.7 °C 6.4 °C 1032.4 hPa Calm     92% 0 mm
08:05 7.8 °C 6.6 °C 1032.4 hPa Calm     92% 0 mm
08:10 8 °C 6.6 °C 1032.4 hPa Calm     91% 0 mm
08:15 8.2 °C 6.8 °C 1032.4 hPa Calm     91% 0 mm
08:20 8.3 °C 6.8 °C 1032.4 hPa Calm     90% 0 mm
08:24 8.6 °C 7.1 °C 1032.4 hPa Calm     90% 0 mm
08:29 8.9 °C 7.3 °C 1032.4 hPa Calm     90% 0 mm
08:35 9.3 °C 7.6 °C 1032.4 hPa Calm     89% 0 mm
08:39 9.8 °C 7.9 °C 1032.7 hPa Calm     88% 0 mm
08:45 10.3 °C 8.3 °C 1032.7 hPa Calm     87% 0 mm
08:50 10.5 °C 8.3 °C 1032.7 hPa Calm     86% 0 mm
08:54 10.8 °C 8.6 °C 1032.7 hPa Calm     86% 0 mm
09:00 11.1 °C 8.4 °C 1032.7 hPa Calm     84% 0 mm
09:05 11.3 °C 8.5 °C 1032.7 hPa Calm     83% 0 mm
09:10 11.5 °C 8.7 °C 1032.7 hPa Calm     83% 0 mm
09:15 11.7 °C 8.7 °C 1032.7 hPa Calm     82% 0 mm
09:20 12.2 °C 9.2 °C 1033.1 hPa Calm     82% 0 mm
09:24 12.3 °C 9.2 °C 1033.1 hPa Calm     81% 0 mm
09:29 12.3 °C 8.9 °C 1033.1 hPa Calm     80% 0 mm
09:35 12.6 °C 9.6 °C 1033.1 hPa Calm     82% 0 mm
09:40 12.9 °C 9.4 °C 1033.1 hPa Calm     79% 0 mm
09:45 12.9 °C 9.3 °C 1033.1 hPa Calm     79% 0 mm
09:50 13.6 °C 10 °C 1033.1 hPa Calm     79% 0 mm
10:00 14.6 °C 10 °C 1033.1 hPa Calm     74% 0 mm
10:05 14.8 °C 10.2 °C 1033.1 hPa Calm   6.4 km/h 74% 0 mm
10:09 15.1 °C 10.1 °C 1033.1 hPa ENE 3.2 km/h 4.8 km/h 72% 0 mm
10:14 15.3 °C 10.3 °C 1033.1 hPa NNE 3.2 km/h 4.8 km/h 72% 0 mm
10:19 15.7 °C 10.2 °C 1033.1 hPa Calm   4.8 km/h 70% 0 mm
10:25 15.9 °C 10.1 °C 1033.1 hPa Calm   11.3 km/h 68% 0 mm
10:29 16.2 °C 10.4 °C 1033.1 hPa ENE 3.2 km/h 11.3 km/h 69% 0 mm
10:35 16.4 °C 10.7 °C 1033.1 hPa NE 6.4 km/h 11.3 km/h 69% 0 mm
10:39 16.6 °C 10.4 °C 1033.1 hPa ENE 4.8 km/h 11.3 km/h 67% 0 mm
10:45 16.7 °C 10.6 °C 1033.1 hPa ENE 4.8 km/h 9.7 km/h 67% 0 mm
10:50 16.9 °C 10.1 °C 1033.1 hPa NNW 8 km/h 11.3 km/h 64% 0 mm
10:55 17.1 °C 10.5 °C 1032.7 hPa NNW 3.2 km/h 8 km/h 65% 0 mm
10:59 17.2 °C 9.6 °C 1032.7 hPa NNW 3.2 km/h 9.7 km/h 61% 0 mm
11:05 17.2 °C 10.6 °C 1032.7 hPa ENE 1.6 km/h 11.3 km/h 65% 0 mm
11:10 17.6 °C 9.4 °C 1033.1 hPa NNE 3.2 km/h 11.3 km/h 59% 0 mm
11:15 17.6 °C 9.4 °C 1032.7 hPa NNW 3.2 km/h 9.7 km/h 59% 0 mm
11:19 17.7 °C 9.3 °C 1033.1 hPa NNW 6.4 km/h 9.7 km/h 58% 0 mm
11:24 17.7 °C 10.3 °C 1032.7 hPa NE 3.2 km/h 11.3 km/h 62% 0 mm
11:29 17.6 °C 9 °C 1032.7 hPa NNE 4.8 km/h 12.9 km/h 57% 0 mm
11:34 18.3 °C 9.9 °C 1032.7 hPa North 3.2 km/h 12.9 km/h 58% 0 mm
11:39 17.8 °C 9.2 °C 1032.7 hPa NNW 3.2 km/h 9.7 km/h 57% 0 mm
11:44 18.1 °C 9.9 °C 1032.7 hPa NNW 8 km/h 11.3 km/h 59% 0 mm
11:50 18.1 °C 9.7 °C 1032.7 hPa Calm   12.9 km/h 58% 0 mm
11:55 17.3 °C 8.7 °C 1032.7 hPa North 4.8 km/h 12.9 km/h 57% 0 mm
12:00 17.5 °C 9.4 °C 1032.7 hPa ENE 3.2 km/h 14.5 km/h 59% 0 mm
12:04 18.1 °C 9.7 °C 1032.7 hPa NNE 4.8 km/h 14.5 km/h 58% 0 mm
12:10 18.3 °C 9.7 °C 1032.7 hPa North 4.8 km/h 12.9 km/h 57% 0 mm
12:15 17.5 °C 8.6 °C 1032.7 hPa North 4.8 km/h 11.3 km/h 56% 0 mm
12:20 17.4 °C 9.3 °C 1032.7 hPa NNW 6.4 km/h 12.9 km/h 59% 0 mm
12:24 17.9 °C 9.5 °C 1032.7 hPa North 4.8 km/h 9.7 km/h 58% 0 mm
12:29 18.5 °C 9.6 °C 1032.4 hPa West 3.2 km/h 9.7 km/h 56% 0 mm
12:34 17.9 °C 9.3 °C 1032.4 hPa North 3.2 km/h 9.7 km/h 57% 0 mm
12:40 17.6 °C 9.2 °C 1032.4 hPa ESE 3.2 km/h 8 km/h 58% 0 mm
12:44 18.2 °C 9.6 °C 1032.4 hPa Calm   8 km/h 57% 0 mm
12:49 17.6 °C 9.4 °C 1032.4 hPa NW 8 km/h 12.9 km/h 59% 0 mm
12:54 17.4 °C 9.6 °C 1032.4 hPa NNW 1.6 km/h 8 km/h 60% 0 mm
12:59 18.2 °C 10.1 °C 1032.1 hPa NNE 4.8 km/h 11.3 km/h 59% 0 mm
13:04 18.9 °C 10.4 °C 1032.4 hPa NNW 4.8 km/h 11.3 km/h 58% 0 mm
13:09 18.1 °C 9.7 °C 1032.4 hPa North 4.8 km/h 9.7 km/h 58% 0 mm
13:15 18.7 °C 10.7 °C 1032.1 hPa North 3.2 km/h 8 km/h 60% 0 mm
13:19 18.6 °C 9.9 °C 1032.1 hPa North 3.2 km/h 8 km/h 57% 0 mm
13:25 17.9 °C 9 °C 1032.4 hPa NNE 3.2 km/h 8 km/h 56% 0 mm
13:30 17.6 °C 9.4 °C 1032.1 hPa ENE 1.6 km/h 6.4 km/h 59% 0 mm
13:35 18.4 °C 10 °C 1032.1 hPa NE 4.8 km/h 11.3 km/h 58% 0 mm
13:39 18.8 °C 9.3 °C 1032.1 hPa ENE 6.4 km/h 11.3 km/h 54% 0 mm
13:40 18.8 °C 9.3 °C 1032.1 hPa NNE 4.8 km/h 11.3 km/h 54% 0 mm
13:44 18.7 °C 9.5 °C 1032.1 hPa East 1.6 km/h 11.3 km/h 55% 0 mm
13:49 19.1 °C 10.1 °C 1032.1 hPa NW 3.2 km/h 11.3 km/h 56% 0 mm
13:54 19 °C 8.9 °C 1032.1 hPa ENE 4.8 km/h 9.7 km/h 52% 0 mm
13:59 18.5 °C 9 °C 1032.1 hPa East 3.2 km/h 14.5 km/h 54% 0 mm
14:05 19.1 °C 10.1 °C 1032.1 hPa NNW 8 km/h 14.5 km/h 56% 0 mm
14:09 18.9 °C 9.9 °C 1031.7 hPa NNE 4.8 km/h 14.5 km/h 56% 0 mm
14:14 19 °C 9.5 °C 1031.7 hPa NNW 4.8 km/h 12.9 km/h 54% 0 mm
14:19 19.1 °C 9.3 °C 1031.7 hPa NW 4.8 km/h 12.9 km/h 53% 0 mm
14:24 19.3 °C 10.3 °C 1031.7 hPa North 3.2 km/h 12.9 km/h 56% 0 mm
14:29 19.2 °C 9.1 °C 1031.7 hPa NE 4.8 km/h 17.7 km/h 52% 0 mm
14:34 19 °C 9.5 °C 1031.4 hPa NNE 3.2 km/h 16.1 km/h 54% 0 mm
14:39 18.9 °C 8.6 °C 1031.4 hPa NE 3.2 km/h 14.5 km/h 51% 0 mm
14:44 19.1 °C 9.6 °C 1031.4 hPa ENE 6.4 km/h 14.5 km/h 54% 0 mm
14:49 19.2 °C 9.1 °C 1031.4 hPa ENE 8 km/h 11.3 km/h 52% 0 mm
14:55 19.3 °C 9.5 °C 1031 hPa ENE 6.4 km/h 19.3 km/h 53% 0 mm
15:00 19.3 °C 10.8 °C 1031 hPa NNW 3.2 km/h 8 km/h 58% 0 mm
15:04 19.6 °C 10.3 °C 1031 hPa NNE 3.2 km/h 8 km/h 55% 0 mm
15:09 19.5 °C 8.8 °C 1031 hPa NNW 1.6 km/h 8 km/h 50% 0 mm
15:14 19.6 °C 9.2 °C 1031 hPa North 3.2 km/h 11.3 km/h 51% 0 mm
15:19 19.6 °C 9.2 °C 1030.7 hPa North 3.2 km/h 11.3 km/h 51% 0 mm
15:24 19.6 °C 8.9 °C 1030.7 hPa NNW 3.2 km/h 12.9 km/h 50% 0 mm
15:29 19.4 °C 8.7 °C 1030.7 hPa NNE 4.8 km/h 17.7 km/h 50% 0 mm
15:35 19.4 °C 9.8 °C 1030.7 hPa ENE 6.4 km/h 17.7 km/h 54% 0 mm
15:39 19.6 °C 9.2 °C 1030.7 hPa NNE 3.2 km/h 16.1 km/h 51% 0 mm
15:44 19.6 °C 9.4 °C 1030.7 hPa NNE 4.8 km/h 9.7 km/h 52% 0 mm
15:49 19.5 °C 8.5 °C 1030.7 hPa NE 3.2 km/h 9.7 km/h 49% 0 mm
15:54 19.5 °C 7.9 °C 1030.7 hPa ENE 3.2 km/h 11.3 km/h 47% 0 mm
15:59 19.7 °C 8.9 °C 1030.7 hPa NE 3.2 km/h 11.3 km/h 50% 0 mm
16:05 19.5 °C 8.8 °C 1030.7 hPa NE 4.8 km/h 11.3 km/h 50% 0 mm
16:09 19.5 °C 8.5 °C 1030.7 hPa ENE 6.4 km/h 11.3 km/h 49% 0 mm
16:14 19.1 °C 8.1 °C 1030.7 hPa ENE 3.2 km/h 12.9 km/h 49% 0 mm
16:19 19.1 °C 8.4 °C 1030.7 hPa NE 4.8 km/h 12.9 km/h 50% 0 mm
16:24 19.1 °C 8.2 °C 1030.4 hPa NE 3.2 km/h 11.3 km/h 49% 0 mm
16:29 19.3 °C 9.2 °C 1030.7 hPa NE 4.8 km/h 11.3 km/h 52% 0 mm
16:34 19.3 °C 9.4 °C 1030.7 hPa ENE 6.4 km/h 12.9 km/h 53% 0 mm
16:39 19.1 °C 9.3 °C 1030.7 hPa NNE 3.2 km/h 12.9 km/h 53% 0 mm
16:44 19.1 °C 9 °C 1030.7 hPa ENE 12.9 km/h 14.5 km/h 52% 0 mm
16:49 19 °C 9.2 °C 1030.4 hPa West 6.4 km/h 14.5 km/h 53% 0 mm
16:54 18.9 °C 8.5 °C 1030.4 hPa NNE 4.8 km/h 14.5 km/h 51% 0 mm
16:59 19.1 °C 8.7 °C 1030.4 hPa ENE 1.6 km/h 12.9 km/h 51% 0 mm
17:04 19.1 °C 8.4 °C 1030.4 hPa NE 6.4 km/h 9.7 km/h 50% 0 mm
17:09 19.1 °C 8.9 °C 1030.4 hPa NNE 8 km/h 11.3 km/h 52% 0 mm
17:14 18.9 °C 8.9 °C 1030.4 hPa NE 8 km/h 14.5 km/h 52% 0 mm
17:19 18.8 °C 9 °C 1030.4 hPa NE 3.2 km/h 11.3 km/h 53% 0 mm
17:24 18.8 °C 8.8 °C 1030.4 hPa NE 3.2 km/h 11.3 km/h 52% 0 mm
17:29 18.9 °C 9.2 °C 1030 hPa NE 3.2 km/h 9.7 km/h 53% 0 mm
17:34 18.8 °C 8.5 °C 1030 hPa ENE 3.2 km/h 9.7 km/h 51% 0 mm
17:39 18.9 °C 8.9 °C 1030 hPa ENE 3.2 km/h 9.7 km/h 52% 0 mm
17:44 18.8 °C 9.3 °C 1030 hPa ENE 3.2 km/h 11.3 km/h 54% 0 mm
17:50 18.7 °C 9.5 °C 1030 hPa East 8 km/h 11.3 km/h 55% 0 mm
17:54 18.4 °C 9.2 °C 1030 hPa East 4.8 km/h 11.3 km/h 55% 0 mm
17:59 18.3 °C 9.7 °C 1030 hPa NE 8 km/h 8 km/h 57% 0 mm
18:04 18.2 °C 9.5 °C 1030 hPa NE 4.8 km/h 14.5 km/h 57% 0 mm
18:09 17.9 °C 9.3 °C 1030 hPa ENE 4.8 km/h 8 km/h 57% 0 mm
18:14 17.8 °C 9.7 °C 1030 hPa North 6.4 km/h 8 km/h 59% 0 mm
18:19 17.8 °C 9.4 °C 1030 hPa NE 3.2 km/h 11.3 km/h 58% 0 mm
18:24 17.9 °C 9.5 °C 1030 hPa NE 4.8 km/h 12.9 km/h 58% 0 mm
18:29 17.8 °C 9.4 °C 1030 hPa ENE 4.8 km/h 12.9 km/h 58% 0 mm
18:34 17.7 °C 9.6 °C 1030 hPa ENE 3.2 km/h 12.9 km/h 59% 0 mm
18:39 17.5 °C 9.4 °C 1030 hPa NE 1.6 km/h 6.4 km/h 59% 0 mm
18:44 17.4 °C 9.3 °C 1030 hPa NE 3.2 km/h 6.4 km/h 59% 0 mm
18:49 17.2 °C 9.6 °C 1030 hPa NE 3.2 km/h 6.4 km/h 61% 0 mm
18:55 17.1 °C 9.8 °C 1030 hPa NE 1.6 km/h 6.4 km/h 62% 0 mm
18:59 16.8 °C 9.5 °C 1030 hPa Calm   6.4 km/h 62% 0 mm
19:04 16.7 °C 9.6 °C 1030 hPa NE 4.8 km/h 8 km/h 63% 0 mm
19:09 16.6 °C 9.7 °C 1030 hPa Calm   4.8 km/h 64% 0 mm
19:14 16.4 °C 9.8 °C 1030 hPa NE 3.2 km/h 4.8 km/h 65% 0 mm
19:19 16.3 °C 9.7 °C 1030 hPa NE 4.8 km/h 4.8 km/h 65% 0 mm
19:29 16 °C 9.7 °C 1030 hPa NE 3.2 km/h 8 km/h 66% 0 mm
19:34 15.8 °C 9.4 °C 1030.4 hPa NE 3.2 km/h 8 km/h 66% 0 mm
19:39 15.7 °C 9.6 °C 1030 hPa NE 1.6 km/h 4.8 km/h 67% 0 mm
19:44 15.5 °C 9.4 °C 1030 hPa NE 1.6 km/h 4.8 km/h 67% 0 mm
19:49 15.3 °C 9.4 °C 1030.4 hPa Calm   3.2 km/h 68% 0 mm
19:54 15.2 °C 9.3 °C 1030 hPa Calm   3.2 km/h 68% 0 mm
20:09 14.9 °C 9.1 °C 1030.4 hPa Calm   6.4 km/h 68% 0 mm
20:14 14.8 °C 9.2 °C 1030.4 hPa Calm   3.2 km/h 69% 0 mm
20:19 14.7 °C 9.1 °C 1030.4 hPa Calm   4.8 km/h 69% 0 mm
20:24 14.6 °C 8.9 °C 1030.4 hPa Calm   4.8 km/h 69% 0 mm
20:29 14.4 °C 9.1 °C 1030.4 hPa Calm     70% 0 mm
20:34 14.4 °C 9 °C 1030.4 hPa Calm   3.2 km/h 70% 0 mm
20:39 14.2 °C 8.8 °C 1030.4 hPa Calm   3.2 km/h 70% 0 mm
20:44 14.2 °C 9 °C 1030.4 hPa Calm     71% 0 mm
20:49 14.1 °C 8.9 °C 1030.4 hPa Calm     71% 0 mm
20:54 13.9 °C 8.7 °C 1030.4 hPa Calm     71% 0 mm
21:00 13.7 °C 8.7 °C 1030.4 hPa Calm     72% 0 mm
21:05 13.6 °C 8.8 °C 1030.4 hPa Calm     73% 0 mm
21:09 13.6 °C 8.8 °C 1030.4 hPa Calm     73% 0 mm
21:14 13.6 °C 8.8 °C 1030.4 hPa Calm     73% 0 mm
21:19 13.5 °C 8.8 °C 1030.4 hPa Calm     73% 0 mm
21:24 13.3 °C 8.6 °C 1030.4 hPa Calm     73% 0 mm
21:29 13.3 °C 8.6 °C 1030.4 hPa Calm     73% 0 mm
21:34 13.3 °C 8.7 °C 1030.4 hPa Calm     74% 0 mm
21:39 13.2 °C 8.6 °C 1030.4 hPa Calm     74% 0 mm
21:44 12.9 °C 8.6 °C 1030.4 hPa Calm     75% 0 mm
21:49 12.8 °C 8.5 °C 1030.4 hPa Calm     75% 0 mm
21:54 12.7 °C 8.4 °C 1030.4 hPa Calm     75% 0 mm
21:59 12.7 °C 8.3 °C 1030.7 hPa Calm     75% 0 mm
22:04 12.7 °C 8.6 °C 1030.4 hPa Calm     76% 0 mm
22:09 12.7 °C 8.6 °C 1030.4 hPa Calm     76% 0 mm
22:14 12.7 °C 8.6 °C 1030.4 hPa Calm     76% 0 mm
22:19 12.6 °C 8.4 °C 1030.4 hPa Calm     76% 0 mm
22:24 12.4 °C 8.5 °C 1030.7 hPa Calm     77% 0 mm
22:29 12.3 °C 8.6 °C 1030.7 hPa Calm     78% 0 mm
22:34 12.1 °C 8.4 °C 1030.7 hPa Calm     78% 0 mm
22:39 12.1 °C 8.4 °C 1030.7 hPa Calm   4.8 km/h 78% 0 mm
22:44 12.1 °C 8.3 °C 1030.7 hPa Calm   4.8 km/h 78% 0 mm
22:49 11.8 °C 8.1 °C 1030.7 hPa Calm     78% 0 mm
22:54 11.6 °C 8.1 °C 1030.7 hPa Calm     79% 0 mm
22:59 11.4 °C 8.1 °C 1030.7 hPa Calm     80% 0 mm
23:04 11.2 °C 8 °C 1030.7 hPa Calm     81% 0 mm
23:09 11.1 °C 8.1 °C 1030.7 hPa Calm     82% 0 mm
23:24 10.7 °C 7.9 °C 1030.7 hPa Calm     83% 0 mm
23:29 11 °C 8.2 °C 1030.7 hPa Calm     83% 0 mm
23:34 11.1 °C 8.1 °C 1030.7 hPa Calm     82% 0 mm
23:39 10.8 °C 7.9 °C 1030.7 hPa Calm     82% 0 mm
23:49 10.8 °C 8 °C 1030.7 hPa Calm     83% 0 mm
23:54 10.7 °C 7.9 °C 1030.7 hPa Calm     83% 0 mm
23:59 10.6 °C 7.8 °C 1030.7 hPa Calm     83% 0 mm
Buffalo, New York, USA
Compliments of Weather Underground - 2.5 mb